Portada
METAR-TAF:

METAR-TAF

Aeroports :

Aeroport d'Albacete

Albacete, Espanya

latitud: 38-57N, longitud: 001-51W, altitud: 702 m

Observació

L'informe es va fer fa 13 minuts, a les 06:00 UTC
Vent 3 kt del Oest
Temperatura 1°C
Humitat 100%
Pressió 1024 hPa
Visibilitat: 0100 m
boira

METAR: LEAB 070600Z 28003KT 0100 R09/0500N R27/0600N FG VV001 01/01 Q1024 NOSIG

Hora: 07:13 (06:13 UTC)

Pronòstic

L'informe es va fer fa 1 hora i 13 minuts, a les 05:00 UTC
Pronòstic vàlid del 07 a les 06 UTC al 07 a les 15 UTC
Vent 5 kt amb direcció variable
Visibilitat 10 km o més
Núvols disperses a una alçada de 2000 ft
Temporalment
l' 07 a les 06 UTC al 07 a les 11 UTC
Visibilitat: 2000 m
Cel ennuvolat a una alçada de 1000 ft
boirina
Probabilitat 40% :
Temporalment
l' 07 a les 06 UTC al 07 a les 10 UTC
Visibilitat: 0200 m
a una alçada de 100 ft
boira

TAF: LEAB 070500Z 0706/0715 VRB05KT 9999 SCT020 TEMPO 0706/0711 2000 BR BKN010 PROB40 TEMPO 0706/0710 0200 FG VV001

Observacions i pronòstics meteorològics de més de 4000 aeroports (METAR i TAF).

Les estacions disponibles són els punts grocs i vermells al mapa.

Posi el ratolí al punt desitjat per veure el nom de l'estació.

Feu clic per veure les observacions i els pronòstics meteorològics.

Per canviar el mapa: feu clic els botons verds amb una creu de color negre per apropar; al botó verd amb un guió per allunyar la imatge; o en les fletxes verdes per a mapes adjacents.


METAR-TAF: